sensor_id;sensor_type;location;lat;lon;timestamp;P1;durP1;ratioP1;P2;durP2;ratioP2
44816;SDS011;30529;53.570;9.964;2023-02-17T00:00:11;27.27;;;21.77;;
44816;SDS011;30529;53.570;9.964;2023-02-17T00:02:38;29.80;;;22.50;;
44816;SDS011;30529;53.570;9.964;2023-02-17T00:05:04;29.20;;;22.30;;
44816;SDS011;30529;53.570;9.964;2023-02-17T00:07:31;29.20;;;22.97;;
44816;SDS011;30529;53.570;9.964;2023-02-17T00:09:58;28.23;;;22.47;;
44816;SDS011;30529;53.570;9.964;2023-02-17T00:12:24;29.30;;;22.50;;
44816;SDS011;30529;53.570;9.964;2023-02-17T00:14:50;28.03;;;21.27;;
44816;SDS011;30529;53.570;9.964;2023-02-17T00:17:16;26.33;;;22.27;;
44816;SDS011;30529;53.570;9.964;2023-02-17T00:19:43;27.77;;;20.77;;
44816;SDS011;30529;53.570;9.964;2023-02-17T00:22:09;27.73;;;22.40;;
44816;SDS011;30529;53.570;9.964;2023-02-17T00:24:38;29.17;;;22.10;;
44816;SDS011;30529;53.570;9.964;2023-02-17T00:27:05;28.97;;;22.87;;
44816;SDS011;30529;53.570;9.964;2023-02-17T00:29:31;29.60;;;22.17;;
44816;SDS011;30529;53.570;9.964;2023-02-17T00:31:58;28.47;;;22.73;;
44816;SDS011;30529;53.570;9.964;2023-02-17T00:34:24;28.43;;;22.63;;
44816;SDS011;30529;53.570;9.964;2023-02-17T00:36:50;28.50;;;22.67;;
44816;SDS011;30529;53.570;9.964;2023-02-17T00:39:16;28.77;;;22.17;;
44816;SDS011;30529;53.570;9.964;2023-02-17T00:41:42;27.80;;;21.80;;
44816;SDS011;30529;53.570;9.964;2023-02-17T00:44:13;29.37;;;22.17;;
44816;SDS011;30529;53.570;9.964;2023-02-17T00:46:47;29.47;;;22.23;;
44816;SDS011;30529;53.570;9.964;2023-02-17T00:49:14;29.60;;;22.60;;
44816;SDS011;30529;53.570;9.964;2023-02-17T00:51:42;26.90;;;21.37;;
44816;SDS011;30529;53.570;9.964;2023-02-17T00:54:09;29.57;;;21.73;;
44816;SDS011;30529;53.570;9.964;2023-02-17T00:56:35;33.63;;;23.37;;
44816;SDS011;30529;53.570;9.964;2023-02-17T00:59:01;29.37;;;21.43;;
44816;SDS011;30529;53.570;9.964;2023-02-17T01:01:28;27.00;;;22.10;;
44816;SDS011;30529;53.570;9.964;2023-02-17T01:03:54;28.50;;;22.07;;
44816;SDS011;30529;53.570;9.964;2023-02-17T01:06:21;27.30;;;20.73;;
44816;SDS011;30529;53.570;9.964;2023-02-17T01:08:59;29.70;;;22.23;;
44816;SDS011;30529;53.570;9.964;2023-02-17T01:11:27;26.63;;;20.90;;
44816;SDS011;30529;53.570;9.964;2023-02-17T01:13:55;26.20;;;20.37;;
44816;SDS011;30529;53.570;9.964;2023-02-17T01:16:25;26.97;;;21.23;;
44816;SDS011;30529;53.570;9.964;2023-02-17T01:18:53;25.53;;;20.30;;
44816;SDS011;30529;53.570;9.964;2023-02-17T01:21:21;24.07;;;19.07;;
44816;SDS011;30529;53.570;9.964;2023-02-17T01:23:49;27.87;;;21.47;;
44816;SDS011;30529;53.570;9.964;2023-02-17T01:26:16;28.03;;;20.53;;
44816;SDS011;30529;53.570;9.964;2023-02-17T01:28:44;25.00;;;20.37;;
44816;SDS011;30529;53.570;9.964;2023-02-17T01:31:11;26.47;;;20.27;;
44816;SDS011;30529;53.570;9.964;2023-02-17T01:33:37;23.50;;;19.83;;
44816;SDS011;30529;53.570;9.964;2023-02-17T01:36:05;24.20;;;19.07;;
44816;SDS011;30529;53.570;9.964;2023-02-17T01:38:34;25.10;;;19.27;;
44816;SDS011;30529;53.570;9.964;2023-02-17T01:41:01;22.17;;;18.80;;
44816;SDS011;30529;53.570;9.964;2023-02-17T01:43:28;25.53;;;19.63;;
44816;SDS011;30529;53.570;9.964;2023-02-17T01:45:55;24.20;;;19.37;;
44816;SDS011;30529;53.570;9.964;2023-02-17T01:48:39;23.73;;;18.30;;
44816;SDS011;30529;53.570;9.964;2023-02-17T01:51:10;26.30;;;19.10;;
44816;SDS011;30529;53.570;9.964;2023-02-17T01:56:15;23.67;;;19.17;;
44816;SDS011;30529;53.570;9.964;2023-02-17T01:58:43;24.23;;;18.63;;
44816;SDS011;30529;53.570;9.964;2023-02-17T02:01:11;22.87;;;17.73;;
44816;SDS011;30529;53.570;9.964;2023-02-17T02:03:38;24.10;;;18.63;;
44816;SDS011;30529;53.570;9.964;2023-02-17T02:06:06;25.33;;;17.43;;
44816;SDS011;30529;53.570;9.964;2023-02-17T02:11:22;21.83;;;17.30;;
44816;SDS011;30529;53.570;9.964;2023-02-17T02:13:49;22.10;;;16.83;;
44816;SDS011;30529;53.570;9.964;2023-02-17T02:16:26;24.80;;;18.03;;
44816;SDS011;30529;53.570;9.964;2023-02-17T02:18:59;20.70;;;17.43;;
44816;SDS011;30529;53.570;9.964;2023-02-17T02:30:25;20.60;;;16.83;;
44816;SDS011;30529;53.570;9.964;2023-02-17T02:38:50;19.30;;;15.63;;
44816;SDS011;30529;53.570;9.964;2023-02-17T02:41:56;18.47;;;15.57;;
44816;SDS011;30529;53.570;9.964;2023-02-17T02:44:21;17.90;;;14.83;;
44816;SDS011;30529;53.570;9.964;2023-02-17T02:46:55;18.87;;;14.83;;
44816;SDS011;30529;53.570;9.964;2023-02-17T02:49:22;17.47;;;14.60;;
44816;SDS011;30529;53.570;9.964;2023-02-17T02:51:58;19.30;;;15.13;;
44816;SDS011;30529;53.570;9.964;2023-02-17T02:57:26;19.13;;;13.90;;
44816;SDS011;30529;53.570;9.964;2023-02-17T03:02:54;15.80;;;13.27;;
44816;SDS011;30529;53.570;9.964;2023-02-17T03:05:31;17.33;;;14.07;;
44816;SDS011;30529;53.570;9.964;2023-02-17T03:08:03;16.60;;;12.90;;
44816;SDS011;30529;53.570;9.964;2023-02-17T03:10:43;16.73;;;13.20;;
44816;SDS011;30529;53.570;9.964;2023-02-17T03:13:10;15.07;;;11.93;;
44816;SDS011;30529;53.570;9.964;2023-02-17T03:15:36;14.40;;;11.67;;
44816;SDS011;30529;53.570;9.964;2023-02-17T03:18:02;16.43;;;11.87;;
44816;SDS011;30529;53.570;9.964;2023-02-17T03:20:29;13.40;;;11.63;;
44816;SDS011;30529;53.570;9.964;2023-02-17T03:23:00;16.33;;;12.07;;
44816;SDS011;30529;53.570;9.964;2023-02-17T03:25:26;13.30;;;11.60;;
44816;SDS011;30529;53.570;9.964;2023-02-17T03:27:52;14.60;;;12.17;;
44816;SDS011;30529;53.570;9.964;2023-02-17T03:30:18;16.80;;;12.33;;
44816;SDS011;30529;53.570;9.964;2023-02-17T03:32:44;14.03;;;12.13;;
44816;SDS011;30529;53.570;9.964;2023-02-17T03:35:11;12.77;;;10.70;;
44816;SDS011;30529;53.570;9.964;2023-02-17T03:37:38;12.40;;;11.00;;
44816;SDS011;30529;53.570;9.964;2023-02-17T03:40:04;13.23;;;11.00;;
44816;SDS011;30529;53.570;9.964;2023-02-17T03:42:31;13.13;;;11.13;;
44816;SDS011;30529;53.570;9.964;2023-02-17T03:44:57;12.70;;;11.03;;
44816;SDS011;30529;53.570;9.964;2023-02-17T03:47:23;14.10;;;11.20;;
44816;SDS011;30529;53.570;9.964;2023-02-17T03:49:50;12.63;;;10.57;;
44816;SDS011;30529;53.570;9.964;2023-02-17T03:52:16;13.47;;;10.93;;
44816;SDS011;30529;53.570;9.964;2023-02-17T03:54:42;11.43;;;9.83;;
44816;SDS011;30529;53.570;9.964;2023-02-17T03:57:08;15.03;;;11.57;;
44816;SDS011;30529;53.570;9.964;2023-02-17T03:59:35;15.37;;;11.03;;
44816;SDS011;30529;53.570;9.964;2023-02-17T04:02:01;14.07;;;11.30;;
44816;SDS011;30529;53.570;9.964;2023-02-17T04:04:28;13.00;;;10.67;;
44816;SDS011;30529;53.570;9.964;2023-02-17T04:06:54;11.13;;;9.73;;
44816;SDS011;30529;53.570;9.964;2023-02-17T04:09:20;10.63;;;9.53;;
44816;SDS011;30529;53.570;9.964;2023-02-17T04:11:46;12.67;;;10.83;;
44816;SDS011;30529;53.570;9.964;2023-02-17T04:14:12;13.77;;;11.77;;
44816;SDS011;30529;53.570;9.964;2023-02-17T04:16:38;12.10;;;9.93;;
44816;SDS011;30529;53.570;9.964;2023-02-17T04:19:07;13.30;;;10.37;;
44816;SDS011;30529;53.570;9.964;2023-02-17T04:21:33;10.60;;;9.23;;
44816;SDS011;30529;53.570;9.964;2023-02-17T04:24:00;11.93;;;9.53;;
44816;SDS011;30529;53.570;9.964;2023-02-17T04:26:27;12.43;;;9.73;;
44816;SDS011;30529;53.570;9.964;2023-02-17T04:28:53;11.60;;;9.03;;
44816;SDS011;30529;53.570;9.964;2023-02-17T04:31:19;12.27;;;10.07;;
44816;SDS011;30529;53.570;9.964;2023-02-17T04:33:45;11.03;;;9.60;;
44816;SDS011;30529;53.570;9.964;2023-02-17T04:36:11;12.33;;;10.13;;
44816;SDS011;30529;53.570;9.964;2023-02-17T04:38:38;13.23;;;9.27;;
44816;SDS011;30529;53.570;9.964;2023-02-17T04:41:04;12.97;;;10.03;;
44816;SDS011;30529;53.570;9.964;2023-02-17T04:43:30;11.83;;;9.53;;
44816;SDS011;30529;53.570;9.964;2023-02-17T04:45:57;12.00;;;9.90;;
44816;SDS011;30529;53.570;9.964;2023-02-17T04:48:23;11.50;;;9.67;;
44816;SDS011;30529;53.570;9.964;2023-02-17T04:50:50;15.37;;;9.97;;
44816;SDS011;30529;53.570;9.964;2023-02-17T04:53:17;14.77;;;10.93;;
44816;SDS011;30529;53.570;9.964;2023-02-17T04:55:43;14.20;;;10.90;;
44816;SDS011;30529;53.570;9.964;2023-02-17T04:58:13;15.77;;;11.33;;
44816;SDS011;30529;53.570;9.964;2023-02-17T05:00:39;13.37;;;11.00;;
44816;SDS011;30529;53.570;9.964;2023-02-17T05:03:05;11.80;;;10.37;;
44816;SDS011;30529;53.570;9.964;2023-02-17T05:05:31;13.00;;;11.30;;
44816;SDS011;30529;53.570;9.964;2023-02-17T05:07:57;13.03;;;10.83;;
44816;SDS011;30529;53.570;9.964;2023-02-17T05:10:23;14.03;;;11.27;;
44816;SDS011;30529;53.570;9.964;2023-02-17T05:12:49;14.13;;;10.67;;
44816;SDS011;30529;53.570;9.964;2023-02-17T05:15:15;15.70;;;11.90;;
44816;SDS011;30529;53.570;9.964;2023-02-17T05:17:41;16.17;;;12.10;;
44816;SDS011;30529;53.570;9.964;2023-02-17T05:20:07;18.87;;;11.73;;
44816;SDS011;30529;53.570;9.964;2023-02-17T05:22:34;15.93;;;12.27;;
44816;SDS011;30529;53.570;9.964;2023-02-17T05:25:00;15.43;;;12.27;;
44816;SDS011;30529;53.570;9.964;2023-02-17T05:27:26;18.03;;;12.67;;
44816;SDS011;30529;53.570;9.964;2023-02-17T05:29:52;21.07;;;14.60;;
44816;SDS011;30529;53.570;9.964;2023-02-17T05:32:18;16.63;;;12.93;;
44816;SDS011;30529;53.570;9.964;2023-02-17T05:34:44;20.13;;;14.03;;
44816;SDS011;30529;53.570;9.964;2023-02-17T05:37:10;17.67;;;13.20;;
44816;SDS011;30529;53.570;9.964;2023-02-17T05:39:36;22.23;;;14.70;;
44816;SDS011;30529;53.570;9.964;2023-02-17T05:42:02;19.40;;;14.93;;
44816;SDS011;30529;53.570;9.964;2023-02-17T05:44:28;20.90;;;15.23;;
44816;SDS011;30529;53.570;9.964;2023-02-17T05:46:54;23.13;;;16.23;;
44816;SDS011;30529;53.570;9.964;2023-02-17T05:49:20;20.90;;;15.00;;
44816;SDS011;30529;53.570;9.964;2023-02-17T05:51:46;21.60;;;14.77;;
44816;SDS011;30529;53.570;9.964;2023-02-17T05:54:12;21.47;;;14.70;;
44816;SDS011;30529;53.570;9.964;2023-02-17T05:56:38;23.87;;;16.77;;
44816;SDS011;30529;53.570;9.964;2023-02-17T05:59:04;21.47;;;16.07;;
44816;SDS011;30529;53.570;9.964;2023-02-17T06:01:30;26.07;;;16.10;;
44816;SDS011;30529;53.570;9.964;2023-02-17T06:03:56;23.53;;;15.93;;
44816;SDS011;30529;53.570;9.964;2023-02-17T06:06:22;24.33;;;16.80;;
44816;SDS011;30529;53.570;9.964;2023-02-17T06:08:48;22.70;;;15.70;;
44816;SDS011;30529;53.570;9.964;2023-02-17T06:11:14;25.67;;;16.73;;
44816;SDS011;30529;53.570;9.964;2023-02-17T06:13:40;23.00;;;16.40;;
44816;SDS011;30529;53.570;9.964;2023-02-17T06:16:06;22.50;;;16.30;;
44816;SDS011;30529;53.570;9.964;2023-02-17T06:18:32;27.67;;;17.57;;
44816;SDS011;30529;53.570;9.964;2023-02-17T06:20:59;25.33;;;17.83;;
44816;SDS011;30529;53.570;9.964;2023-02-17T06:23:25;24.70;;;17.30;;
44816;SDS011;30529;53.570;9.964;2023-02-17T06:25:51;24.10;;;16.37;;
44816;SDS011;30529;53.570;9.964;2023-02-17T06:28:18;24.13;;;16.67;;
44816;SDS011;30529;53.570;9.964;2023-02-17T06:30:44;24.87;;;17.43;;
44816;SDS011;30529;53.570;9.964;2023-02-17T06:33:10;25.67;;;17.07;;
44816;SDS011;30529;53.570;9.964;2023-02-17T06:35:36;24.77;;;16.63;;
44816;SDS011;30529;53.570;9.964;2023-02-17T06:38:02;27.33;;;17.73;;
44816;SDS011;30529;53.570;9.964;2023-02-17T06:40:28;26.17;;;17.37;;
44816;SDS011;30529;53.570;9.964;2023-02-17T06:42:54;27.73;;;17.97;;
44816;SDS011;30529;53.570;9.964;2023-02-17T06:45:20;24.40;;;17.10;;
44816;SDS011;30529;53.570;9.964;2023-02-17T06:47:46;26.53;;;18.50;;
44816;SDS011;30529;53.570;9.964;2023-02-17T06:50:12;30.27;;;18.90;;
44816;SDS011;30529;53.570;9.964;2023-02-17T06:52:40;29.43;;;18.53;;
44816;SDS011;30529;53.570;9.964;2023-02-17T06:55:06;30.50;;;19.10;;
44816;SDS011;30529;53.570;9.964;2023-02-17T06:57:32;26.87;;;19.73;;
44816;SDS011;30529;53.570;9.964;2023-02-17T06:59:58;25.03;;;18.57;;
44816;SDS011;30529;53.570;9.964;2023-02-17T07:02:25;28.83;;;18.53;;
44816;SDS011;30529;53.570;9.964;2023-02-17T07:04:51;27.27;;;19.27;;
44816;SDS011;30529;53.570;9.964;2023-02-17T07:07:17;28.57;;;18.80;;
44816;SDS011;30529;53.570;9.964;2023-02-17T07:09:43;25.80;;;18.43;;
44816;SDS011;30529;53.570;9.964;2023-02-17T07:12:09;28.53;;;19.60;;
44816;SDS011;30529;53.570;9.964;2023-02-17T07:14:35;30.00;;;19.90;;
44816;SDS011;30529;53.570;9.964;2023-02-17T07:17:01;27.40;;;19.53;;
44816;SDS011;30529;53.570;9.964;2023-02-17T07:19:27;26.87;;;18.87;;
44816;SDS011;30529;53.570;9.964;2023-02-17T07:21:53;29.83;;;20.73;;
44816;SDS011;30529;53.570;9.964;2023-02-17T07:24:19;30.07;;;20.23;;
44816;SDS011;30529;53.570;9.964;2023-02-17T07:26:45;32.33;;;19.80;;
44816;SDS011;30529;53.570;9.964;2023-02-17T07:29:11;33.43;;;21.27;;
44816;SDS011;30529;53.570;9.964;2023-02-17T07:31:37;29.07;;;19.83;;
44816;SDS011;30529;53.570;9.964;2023-02-17T07:34:03;30.43;;;21.30;;
44816;SDS011;30529;53.570;9.964;2023-02-17T07:36:29;32.17;;;21.17;;
44816;SDS011;30529;53.570;9.964;2023-02-17T07:38:55;32.33;;;20.90;;
44816;SDS011;30529;53.570;9.964;2023-02-17T07:41:22;28.13;;;19.57;;
44816;SDS011;30529;53.570;9.964;2023-02-17T07:43:52;31.03;;;19.63;;
44816;SDS011;30529;53.570;9.964;2023-02-17T07:46:19;32.57;;;20.07;;
44816;SDS011;30529;53.570;9.964;2023-02-17T07:48:45;31.10;;;20.23;;
44816;SDS011;30529;53.570;9.964;2023-02-17T07:51:13;28.23;;;19.67;;
44816;SDS011;30529;53.570;9.964;2023-02-17T07:53:41;30.33;;;19.10;;
44816;SDS011;30529;53.570;9.964;2023-02-17T07:56:08;29.30;;;19.90;;
44816;SDS011;30529;53.570;9.964;2023-02-17T07:58:37;29.60;;;20.30;;
44816;SDS011;30529;53.570;9.964;2023-02-17T08:01:09;30.47;;;19.80;;
44816;SDS011;30529;53.570;9.964;2023-02-17T08:03:37;29.30;;;19.53;;
44816;SDS011;30529;53.570;9.964;2023-02-17T08:06:04;29.20;;;19.60;;
44816;SDS011;30529;53.570;9.964;2023-02-17T08:08:37;31.67;;;18.87;;
44816;SDS011;30529;53.570;9.964;2023-02-17T08:11:22;26.67;;;18.10;;
44816;SDS011;30529;53.570;9.964;2023-02-17T08:14:07;24.63;;;17.27;;
44816;SDS011;30529;53.570;9.964;2023-02-17T08:16:33;28.23;;;18.63;;
44816;SDS011;30529;53.570;9.964;2023-02-17T08:18:59;27.47;;;18.57;;
44816;SDS011;30529;53.570;9.964;2023-02-17T08:21:25;25.03;;;16.37;;
44816;SDS011;30529;53.570;9.964;2023-02-17T08:23:52;24.03;;;16.60;;
44816;SDS011;30529;53.570;9.964;2023-02-17T08:26:19;24.07;;;15.63;;
44816;SDS011;30529;53.570;9.964;2023-02-17T08:28:45;22.10;;;15.00;;
44816;SDS011;30529;53.570;9.964;2023-02-17T08:31:23;21.10;;;14.57;;
44816;SDS011;30529;53.570;9.964;2023-02-17T08:33:51;23.13;;;14.97;;
44816;SDS011;30529;53.570;9.964;2023-02-17T08:36:18;22.80;;;14.93;;
44816;SDS011;30529;53.570;9.964;2023-02-17T08:38:47;20.90;;;14.37;;
44816;SDS011;30529;53.570;9.964;2023-02-17T08:41:17;23.60;;;14.60;;
44816;SDS011;30529;53.570;9.964;2023-02-17T08:43:51;21.33;;;12.97;;
44816;SDS011;30529;53.570;9.964;2023-02-17T08:46:17;25.47;;;15.23;;
44816;SDS011;30529;53.570;9.964;2023-02-17T08:48:44;20.83;;;13.13;;
44816;SDS011;30529;53.570;9.964;2023-02-17T08:51:11;19.63;;;13.53;;
44816;SDS011;30529;53.570;9.964;2023-02-17T08:53:39;20.23;;;13.60;;
44816;SDS011;30529;53.570;9.964;2023-02-17T08:56:05;19.30;;;13.50;;
44816;SDS011;30529;53.570;9.964;2023-02-17T08:58:31;21.63;;;13.93;;
44816;SDS011;30529;53.570;9.964;2023-02-17T09:00:58;21.00;;;15.13;;
44816;SDS011;30529;53.570;9.964;2023-02-17T09:03:23;19.83;;;14.03;;
44816;SDS011;30529;53.570;9.964;2023-02-17T09:05:52;23.63;;;14.37;;
44816;SDS011;30529;53.570;9.964;2023-02-17T09:08:19;19.30;;;12.80;;
44816;SDS011;30529;53.570;9.964;2023-02-17T09:10:45;20.97;;;14.60;;
44816;SDS011;30529;53.570;9.964;2023-02-17T09:13:11;19.07;;;13.27;;
44816;SDS011;30529;53.570;9.964;2023-02-17T09:15:37;23.30;;;14.20;;
44816;SDS011;30529;53.570;9.964;2023-02-17T09:18:03;18.00;;;12.73;;
44816;SDS011;30529;53.570;9.964;2023-02-17T09:20:29;18.97;;;13.10;;
44816;SDS011;30529;53.570;9.964;2023-02-17T09:22:55;19.97;;;12.77;;
44816;SDS011;30529;53.570;9.964;2023-02-17T09:25:21;17.77;;;12.70;;
44816;SDS011;30529;53.570;9.964;2023-02-17T09:27:47;22.97;;;12.53;;
44816;SDS011;30529;53.570;9.964;2023-02-17T09:30:13;17.80;;;12.17;;
44816;SDS011;30529;53.570;9.964;2023-02-17T09:32:40;19.47;;;11.53;;
44816;SDS011;30529;53.570;9.964;2023-02-17T09:35:09;15.57;;;10.53;;
44816;SDS011;30529;53.570;9.964;2023-02-17T09:37:36;16.23;;;10.77;;
44816;SDS011;30529;53.570;9.964;2023-02-17T09:40:03;18.20;;;11.27;;
44816;SDS011;30529;53.570;9.964;2023-02-17T09:42:30;17.30;;;11.47;;
44816;SDS011;30529;53.570;9.964;2023-02-17T09:45:01;16.27;;;10.43;;
44816;SDS011;30529;53.570;9.964;2023-02-17T09:47:37;16.03;;;10.77;;
44816;SDS011;30529;53.570;9.964;2023-02-17T09:50:06;18.00;;;10.47;;
44816;SDS011;30529;53.570;9.964;2023-02-17T09:52:39;17.07;;;10.13;;
44816;SDS011;30529;53.570;9.964;2023-02-17T09:55:24;15.97;;;11.00;;
44816;SDS011;30529;53.570;9.964;2023-02-17T10:00:42;17.93;;;10.37;;
44816;SDS011;30529;53.570;9.964;2023-02-17T10:03:12;14.87;;;10.20;;
44816;SDS011;30529;53.570;9.964;2023-02-17T10:08:31;15.27;;;10.23;;
44816;SDS011;30529;53.570;9.964;2023-02-17T10:11:45;14.77;;;9.73;;
44816;SDS011;30529;53.570;9.964;2023-02-17T10:13:51;13.37;;;9.20;;
44816;SDS011;30529;53.570;9.964;2023-02-17T10:16:26;17.53;;;9.83;;
44816;SDS011;30529;53.570;9.964;2023-02-17T10:18:58;14.50;;;9.77;;
44816;SDS011;30529;53.570;9.964;2023-02-17T10:21:28;16.40;;;10.17;;
44816;SDS011;30529;53.570;9.964;2023-02-17T10:23:58;15.40;;;10.70;;
44816;SDS011;30529;53.570;9.964;2023-02-17T10:26:32;16.63;;;11.27;;
44816;SDS011;30529;53.570;9.964;2023-02-17T10:29:33;18.03;;;11.20;;
44816;SDS011;30529;53.570;9.964;2023-02-17T10:37:42;18.67;;;12.50;;
44816;SDS011;30529;53.570;9.964;2023-02-17T10:40:21;27.60;;;15.73;;
44816;SDS011;30529;53.570;9.964;2023-02-17T10:42:50;20.60;;;12.90;;
44816;SDS011;30529;53.570;9.964;2023-02-17T10:48:42;25.27;;;13.23;;
44816;SDS011;30529;53.570;9.964;2023-02-17T10:50:59;23.83;;;13.37;;
44816;SDS011;30529;53.570;9.964;2023-02-17T10:53:30;23.87;;;13.77;;
44816;SDS011;30529;53.570;9.964;2023-02-17T11:01:10;19.33;;;12.57;;
44816;SDS011;30529;53.570;9.964;2023-02-17T11:03:38;26.23;;;13.23;;
44816;SDS011;30529;53.570;9.964;2023-02-17T11:06:13;20.10;;;11.87;;
44816;SDS011;30529;53.570;9.964;2023-02-17T11:11:19;19.73;;;12.53;;
44816;SDS011;30529;53.570;9.964;2023-02-17T11:14:01;18.37;;;11.53;;
44816;SDS011;30529;53.570;9.964;2023-02-17T11:16:35;19.17;;;11.23;;
44816;SDS011;30529;53.570;9.964;2023-02-17T11:21:55;17.53;;;11.60;;
44816;SDS011;30529;53.570;9.964;2023-02-17T11:24:23;15.13;;;10.17;;
44816;SDS011;30529;53.570;9.964;2023-02-17T11:26:57;17.83;;;10.47;;
44816;SDS011;30529;53.570;9.964;2023-02-17T11:29:24;16.97;;;11.10;;
44816;SDS011;30529;53.570;9.964;2023-02-17T11:31:54;18.80;;;11.37;;
44816;SDS011;30529;53.570;9.964;2023-02-17T11:34:26;16.40;;;10.90;;
44816;SDS011;30529;53.570;9.964;2023-02-17T11:36:59;18.30;;;11.40;;
44816;SDS011;30529;53.570;9.964;2023-02-17T11:39:41;22.23;;;10.87;;
44816;SDS011;30529;53.570;9.964;2023-02-17T11:42:13;19.20;;;10.80;;
44816;SDS011;30529;53.570;9.964;2023-02-17T11:44:49;22.27;;;11.83;;
44816;SDS011;30529;53.570;9.964;2023-02-17T11:47:21;16.57;;;10.53;;
44816;SDS011;30529;53.570;9.964;2023-02-17T11:53:01;21.30;;;11.33;;
44816;SDS011;30529;53.570;9.964;2023-02-17T11:55:46;19.90;;;10.97;;
44816;SDS011;30529;53.570;9.964;2023-02-17T12:01:35;19.30;;;11.07;;
44816;SDS011;30529;53.570;9.964;2023-02-17T12:07:13;19.17;;;12.20;;
44816;SDS011;30529;53.570;9.964;2023-02-17T12:18:21;19.43;;;11.07;;
44816;SDS011;30529;53.570;9.964;2023-02-17T12:21:21;18.30;;;11.40;;
44816;SDS011;30529;53.570;9.964;2023-02-17T12:26:47;21.20;;;12.47;;
44816;SDS011;30529;53.570;9.964;2023-02-17T12:34:43;18.83;;;10.67;;
44816;SDS011;30529;53.570;9.964;2023-02-17T12:37:28;17.47;;;10.57;;
44816;SDS011;30529;53.570;9.964;2023-02-17T12:40:01;15.97;;;9.70;;
44816;SDS011;30529;53.570;9.964;2023-02-17T12:42:35;18.13;;;9.77;;
44816;SDS011;30529;53.570;9.964;2023-02-17T12:45:06;14.17;;;8.83;;
44816;SDS011;30529;53.570;9.964;2023-02-17T12:50:42;13.83;;;9.10;;
44816;SDS011;30529;53.570;9.964;2023-02-17T12:53:46;12.33;;;8.70;;
44816;SDS011;30529;53.570;9.964;2023-02-17T12:56:37;10.93;;;7.57;;
44816;SDS011;30529;53.570;9.964;2023-02-17T12:59:14;12.20;;;7.03;;
44816;SDS011;30529;53.570;9.964;2023-02-17T13:01:54;12.20;;;7.30;;
44816;SDS011;30529;53.570;9.964;2023-02-17T13:04:25;12.43;;;7.43;;
44816;SDS011;30529;53.570;9.964;2023-02-17T13:07:35;12.10;;;7.53;;
44816;SDS011;30529;53.570;9.964;2023-02-17T13:09:53;11.87;;;6.40;;
44816;SDS011;30529;53.570;9.964;2023-02-17T13:14:50;11.63;;;6.00;;
44816;SDS011;30529;53.570;9.964;2023-02-17T13:17:27;9.03;;;6.00;;
44816;SDS011;30529;53.570;9.964;2023-02-17T13:22:37;8.70;;;4.90;;
44816;SDS011;30529;53.570;9.964;2023-02-17T13:25:04;11.60;;;5.97;;
44816;SDS011;30529;53.570;9.964;2023-02-17T13:27:32;7.60;;;5.03;;
44816;SDS011;30529;53.570;9.964;2023-02-17T13:30:45;11.67;;;4.70;;
44816;SDS011;30529;53.570;9.964;2023-02-17T13:32:47;8.40;;;5.00;;
44816;SDS011;30529;53.570;9.964;2023-02-17T13:37:50;9.73;;;6.47;;
44816;SDS011;30529;53.570;9.964;2023-02-17T13:42:43;9.87;;;5.37;;
44816;SDS011;30529;53.570;9.964;2023-02-17T13:47:49;10.17;;;5.37;;
44816;SDS011;30529;53.570;9.964;2023-02-17T13:50:36;14.20;;;5.97;;
44816;SDS011;30529;53.570;9.964;2023-02-17T13:53:21;9.73;;;5.37;;
44816;SDS011;30529;53.570;9.964;2023-02-17T13:55:49;13.80;;;5.63;;
44816;SDS011;30529;53.570;9.964;2023-02-17T13:58:20;12.33;;;5.73;;
44816;SDS011;30529;53.570;9.964;2023-02-17T14:00:47;9.50;;;4.90;;
44816;SDS011;30529;53.570;9.964;2023-02-17T14:03:29;9.77;;;4.30;;
44816;SDS011;30529;53.570;9.964;2023-02-17T14:06:00;6.07;;;4.30;;
44816;SDS011;30529;53.570;9.964;2023-02-17T14:11:11;7.00;;;4.30;;
44816;SDS011;30529;53.570;9.964;2023-02-17T14:13:41;11.10;;;4.43;;
44816;SDS011;30529;53.570;9.964;2023-02-17T14:21:44;8.97;;;4.03;;
44816;SDS011;30529;53.570;9.964;2023-02-17T14:24:23;7.97;;;3.70;;
44816;SDS011;30529;53.570;9.964;2023-02-17T14:26:54;7.63;;;3.37;;
44816;SDS011;30529;53.570;9.964;2023-02-17T14:29:25;8.63;;;4.73;;
44816;SDS011;30529;53.570;9.964;2023-02-17T14:32:03;9.20;;;3.27;;
44816;SDS011;30529;53.570;9.964;2023-02-17T14:34:30;10.03;;;3.20;;
44816;SDS011;30529;53.570;9.964;2023-02-17T14:37:09;8.00;;;3.10;;
44816;SDS011;30529;53.570;9.964;2023-02-17T14:39:43;6.93;;;2.70;;
44816;SDS011;30529;53.570;9.964;2023-02-17T14:42:09;10.00;;;2.50;;
44816;SDS011;30529;53.570;9.964;2023-02-17T14:44:34;12.07;;;2.70;;
44816;SDS011;30529;53.570;9.964;2023-02-17T14:47:00;10.90;;;2.83;;
44816;SDS011;30529;53.570;9.964;2023-02-17T14:49:26;7.77;;;2.43;;
44816;SDS011;30529;53.570;9.964;2023-02-17T14:51:52;8.60;;;2.40;;
44816;SDS011;30529;53.570;9.964;2023-02-17T14:54:18;5.97;;;2.03;;
44816;SDS011;30529;53.570;9.964;2023-02-17T14:56:50;13.70;;;2.67;;
44816;SDS011;30529;53.570;9.964;2023-02-17T14:59:24;11.40;;;2.40;;
44816;SDS011;30529;53.570;9.964;2023-02-17T15:01:50;14.50;;;2.87;;
44816;SDS011;30529;53.570;9.964;2023-02-17T15:04:16;12.70;;;2.73;;
44816;SDS011;30529;53.570;9.964;2023-02-17T15:06:43;14.93;;;2.67;;
44816;SDS011;30529;53.570;9.964;2023-02-17T15:09:12;17.07;;;2.80;;
44816;SDS011;30529;53.570;9.964;2023-02-17T15:11:40;15.77;;;3.00;;
44816;SDS011;30529;53.570;9.964;2023-02-17T15:14:11;14.60;;;3.10;;
44816;SDS011;30529;53.570;9.964;2023-02-17T15:16:39;14.80;;;2.63;;
44816;SDS011;30529;53.570;9.964;2023-02-17T15:19:05;12.27;;;2.70;;
44816;SDS011;30529;53.570;9.964;2023-02-17T15:21:32;10.63;;;3.00;;
44816;SDS011;30529;53.570;9.964;2023-02-17T15:24:01;12.93;;;3.30;;
44816;SDS011;30529;53.570;9.964;2023-02-17T15:26:29;17.00;;;2.93;;
44816;SDS011;30529;53.570;9.964;2023-02-17T15:28:55;17.47;;;3.37;;
44816;SDS011;30529;53.570;9.964;2023-02-17T15:31:22;11.80;;;2.63;;
44816;SDS011;30529;53.570;9.964;2023-02-17T15:33:58;18.67;;;3.87;;
44816;SDS011;30529;53.570;9.964;2023-02-17T15:36:25;20.27;;;4.23;;
44816;SDS011;30529;53.570;9.964;2023-02-17T15:38:52;15.17;;;3.70;;
44816;SDS011;30529;53.570;9.964;2023-02-17T15:41:19;17.37;;;4.13;;
44816;SDS011;30529;53.570;9.964;2023-02-17T15:43:48;12.47;;;3.10;;
44816;SDS011;30529;53.570;9.964;2023-02-17T15:46:16;18.27;;;3.73;;
44816;SDS011;30529;53.570;9.964;2023-02-17T15:48:46;20.77;;;4.00;;
44816;SDS011;30529;53.570;9.964;2023-02-17T15:51:15;23.00;;;3.73;;
44816;SDS011;30529;53.570;9.964;2023-02-17T15:53:46;17.70;;;3.63;;
44816;SDS011;30529;53.570;9.964;2023-02-17T15:56:22;19.27;;;4.37;;
44816;SDS011;30529;53.570;9.964;2023-02-17T15:58:51;19.17;;;4.30;;
44816;SDS011;30529;53.570;9.964;2023-02-17T16:01:28;22.93;;;3.63;;
44816;SDS011;30529;53.570;9.964;2023-02-17T16:03:56;15.03;;;3.83;;
44816;SDS011;30529;53.570;9.964;2023-02-17T16:06:23;23.97;;;4.70;;
44816;SDS011;30529;53.570;9.964;2023-02-17T16:08:50;25.03;;;4.47;;
44816;SDS011;30529;53.570;9.964;2023-02-17T16:11:16;22.50;;;4.27;;
44816;SDS011;30529;53.570;9.964;2023-02-17T16:13:43;19.23;;;4.43;;
44816;SDS011;30529;53.570;9.964;2023-02-17T16:16:18;19.73;;;3.93;;
44816;SDS011;30529;53.570;9.964;2023-02-17T16:18:46;23.33;;;4.80;;